Terminal Aerodrome Forecast
Issued by NWS

Home | Current Version | Previous Version | Text Only | Print | Product List | Glossary On
Versions: 1 2 3 4 5 6 7 8 9 10 11 12
000
FTUS44 KSJT 301100
TAFJCT
TAF
KJCT 301120Z 3012/3112 06007KT P6SM BKN100
     FM301300 07007KT P6SM OVC050
     FM310300 10009KT P6SM OVC015
     FM310600 12008G14KT P6SM OVC015 PROB30 3109/3112 6SM -RA BR=

USA.gov is the U.S. government's official web portal to all federal, state and local government web resources and services.